sensor_id;sensor_type;location;lat;lon;timestamp;P1;durP1;ratioP1;P2;durP2;ratioP2
12224;SDS011;6175;50.956;11.064;2023-04-01T00:01:45;2.83;;;1.00;;
12224;SDS011;6175;50.956;11.064;2023-04-01T00:04:13;2.05;;;0.90;;
12224;SDS011;6175;50.956;11.064;2023-04-01T00:06:40;2.53;;;1.00;;
12224;SDS011;6175;50.956;11.064;2023-04-01T00:09:07;2.10;;;1.33;;
12224;SDS011;6175;50.956;11.064;2023-04-01T00:11:34;2.50;;;1.40;;
12224;SDS011;6175;50.956;11.064;2023-04-01T00:14:01;2.30;;;1.50;;
12224;SDS011;6175;50.956;11.064;2023-04-01T00:16:28;2.13;;;1.45;;
12224;SDS011;6175;50.956;11.064;2023-04-01T00:18:57;3.33;;;1.60;;
12224;SDS011;6175;50.956;11.064;2023-04-01T00:21:24;1.60;;;1.50;;
12224;SDS011;6175;50.956;11.064;2023-04-01T00:23:51;4.05;;;1.85;;
12224;SDS011;6175;50.956;11.064;2023-04-01T00:26:19;4.55;;;1.88;;
12224;SDS011;6175;50.956;11.064;2023-04-01T00:28:47;2.25;;;1.70;;
12224;SDS011;6175;50.956;11.064;2023-04-01T00:31:14;3.97;;;1.73;;
12224;SDS011;6175;50.956;11.064;2023-04-01T00:33:41;5.40;;;2.50;;
12224;SDS011;6175;50.956;11.064;2023-04-01T00:36:10;3.35;;;1.88;;
12224;SDS011;6175;50.956;11.064;2023-04-01T00:38:37;3.80;;;2.15;;
12224;SDS011;6175;50.956;11.064;2023-04-01T00:41:05;2.45;;;1.50;;
12224;SDS011;6175;50.956;11.064;2023-04-01T00:43:32;4.13;;;1.80;;
12224;SDS011;6175;50.956;11.064;2023-04-01T00:46:00;2.80;;;1.50;;
12224;SDS011;6175;50.956;11.064;2023-04-01T00:48:28;2.70;;;1.33;;
12224;SDS011;6175;50.956;11.064;2023-04-01T00:50:59;1.10;;;1.02;;
12224;SDS011;6175;50.956;11.064;2023-04-01T00:53:29;2.25;;;1.30;;
12224;SDS011;6175;50.956;11.064;2023-04-01T00:55:59;2.95;;;1.40;;
12224;SDS011;6175;50.956;11.064;2023-04-01T00:58:27;1.33;;;1.15;;
12224;SDS011;6175;50.956;11.064;2023-04-01T01:00:57;2.95;;;1.30;;
12224;SDS011;6175;50.956;11.064;2023-04-01T01:03:26;3.90;;;1.60;;
12224;SDS011;6175;50.956;11.064;2023-04-01T01:06:00;4.90;;;1.27;;
12224;SDS011;6175;50.956;11.064;2023-04-01T01:08:34;2.47;;;1.20;;
12224;SDS011;6175;50.956;11.064;2023-04-01T01:11:04;1.90;;;1.33;;
12224;SDS011;6175;50.956;11.064;2023-04-01T01:13:33;2.05;;;1.20;;
12224;SDS011;6175;50.956;11.064;2023-04-01T01:16:08;2.85;;;1.20;;
12224;SDS011;6175;50.956;11.064;2023-04-01T01:18:38;2.58;;;1.30;;
12224;SDS011;6175;50.956;11.064;2023-04-01T01:21:15;2.75;;;1.00;;
12224;SDS011;6175;50.956;11.064;2023-04-01T01:23:54;2.55;;;1.25;;
12224;SDS011;6175;50.956;11.064;2023-04-01T01:26:30;2.38;;;1.40;;
12224;SDS011;6175;50.956;11.064;2023-04-01T01:29:01;3.50;;;1.17;;
12224;SDS011;6175;50.956;11.064;2023-04-01T01:31:33;1.40;;;1.10;;
12224;SDS011;6175;50.956;11.064;2023-04-01T01:34:06;1.45;;;1.30;;
12224;SDS011;6175;50.956;11.064;2023-04-01T01:36:39;1.02;;;0.80;;
12224;SDS011;6175;50.956;11.064;2023-04-01T01:39:10;1.60;;;1.10;;
12224;SDS011;6175;50.956;11.064;2023-04-01T01:41:38;1.58;;;1.00;;
12224;SDS011;6175;50.956;11.064;2023-04-01T01:44:07;2.17;;;1.05;;
12224;SDS011;6175;50.956;11.064;2023-04-01T01:46:35;1.40;;;0.98;;
12224;SDS011;6175;50.956;11.064;2023-04-01T01:49:02;1.00;;;0.90;;
12224;SDS011;6175;50.956;11.064;2023-04-01T01:51:31;1.75;;;1.00;;
12224;SDS011;6175;50.956;11.064;2023-04-01T01:53:59;1.02;;;0.85;;
12224;SDS011;6175;50.956;11.064;2023-04-01T01:56:27;2.42;;;1.17;;
12224;SDS011;6175;50.956;11.064;2023-04-01T01:58:55;2.00;;;1.10;;
12224;SDS011;6175;50.956;11.064;2023-04-01T02:01:24;3.25;;;1.15;;
12224;SDS011;6175;50.956;11.064;2023-04-01T02:03:51;2.95;;;1.20;;
12224;SDS011;6175;50.956;11.064;2023-04-01T02:06:19;1.92;;;1.60;;
12224;SDS011;6175;50.956;11.064;2023-04-01T02:08:49;1.63;;;1.10;;
12224;SDS011;6175;50.956;11.064;2023-04-01T02:11:22;1.52;;;1.30;;
12224;SDS011;6175;50.956;11.064;2023-04-01T02:13:52;2.60;;;1.50;;
12224;SDS011;6175;50.956;11.064;2023-04-01T02:16:20;3.72;;;1.88;;
12224;SDS011;6175;50.956;11.064;2023-04-01T02:18:48;1.95;;;1.27;;
12224;SDS011;6175;50.956;11.064;2023-04-01T02:21:18;2.83;;;1.70;;
12224;SDS011;6175;50.956;11.064;2023-04-01T02:23:47;1.98;;;0.90;;
12224;SDS011;6175;50.956;11.064;2023-04-01T02:26:14;1.55;;;1.25;;
12224;SDS011;6175;50.956;11.064;2023-04-01T02:28:43;1.45;;;1.00;;
12224;SDS011;6175;50.956;11.064;2023-04-01T02:31:10;2.03;;;0.90;;
12224;SDS011;6175;50.956;11.064;2023-04-01T02:33:40;2.88;;;1.42;;
12224;SDS011;6175;50.956;11.064;2023-04-01T02:36:10;3.30;;;1.10;;
12224;SDS011;6175;50.956;11.064;2023-04-01T02:38:37;2.50;;;1.00;;
12224;SDS011;6175;50.956;11.064;2023-04-01T02:41:05;1.00;;;0.90;;
12224;SDS011;6175;50.956;11.064;2023-04-01T02:43:32;1.17;;;0.82;;
12224;SDS011;6175;50.956;11.064;2023-04-01T02:46:01;1.00;;;0.90;;
12224;SDS011;6175;50.956;11.064;2023-04-01T02:48:28;2.15;;;1.10;;
12224;SDS011;6175;50.956;11.064;2023-04-01T02:50:55;0.93;;;0.80;;
12224;SDS011;6175;50.956;11.064;2023-04-01T02:53:22;1.00;;;0.88;;
12224;SDS011;6175;50.956;11.064;2023-04-01T02:55:49;0.80;;;0.77;;
12224;SDS011;6175;50.956;11.064;2023-04-01T02:58:17;1.27;;;0.90;;
12224;SDS011;6175;50.956;11.064;2023-04-01T03:00:44;1.40;;;0.90;;
12224;SDS011;6175;50.956;11.064;2023-04-01T03:03:12;1.45;;;0.90;;
12224;SDS011;6175;50.956;11.064;2023-04-01T03:05:40;2.65;;;1.13;;
12224;SDS011;6175;50.956;11.064;2023-04-01T03:08:07;1.55;;;0.88;;
12224;SDS011;6175;50.956;11.064;2023-04-01T03:10:34;1.67;;;1.17;;
12224;SDS011;6175;50.956;11.064;2023-04-01T03:13:01;0.80;;;0.80;;
12224;SDS011;6175;50.956;11.064;2023-04-01T03:15:28;1.33;;;0.80;;
12224;SDS011;6175;50.956;11.064;2023-04-01T03:17:55;1.10;;;0.80;;
12224;SDS011;6175;50.956;11.064;2023-04-01T03:20:24;0.85;;;0.80;;
12224;SDS011;6175;50.956;11.064;2023-04-01T03:22:51;1.45;;;1.00;;
12224;SDS011;6175;50.956;11.064;2023-04-01T03:25:18;1.20;;;0.93;;
12224;SDS011;6175;50.956;11.064;2023-04-01T03:27:45;2.03;;;1.10;;
12224;SDS011;6175;50.956;11.064;2023-04-01T03:30:12;1.35;;;1.00;;
12224;SDS011;6175;50.956;11.064;2023-04-01T03:32:39;1.33;;;1.00;;
12224;SDS011;6175;50.956;11.064;2023-04-01T03:35:07;0.80;;;0.80;;
12224;SDS011;6175;50.956;11.064;2023-04-01T03:37:36;1.77;;;1.00;;
12224;SDS011;6175;50.956;11.064;2023-04-01T03:40:04;1.35;;;0.80;;
12224;SDS011;6175;50.956;11.064;2023-04-01T03:42:31;2.88;;;1.02;;
12224;SDS011;6175;50.956;11.064;2023-04-01T03:44:58;1.23;;;0.98;;
12224;SDS011;6175;50.956;11.064;2023-04-01T03:47:25;1.63;;;0.90;;
12224;SDS011;6175;50.956;11.064;2023-04-01T03:49:53;0.70;;;0.70;;
12224;SDS011;6175;50.956;11.064;2023-04-01T03:52:20;1.33;;;0.93;;
12224;SDS011;6175;50.956;11.064;2023-04-01T03:54:48;2.45;;;0.93;;
12224;SDS011;6175;50.956;11.064;2023-04-01T03:57:15;0.73;;;0.73;;
12224;SDS011;6175;50.956;11.064;2023-04-01T03:59:42;1.67;;;0.90;;
12224;SDS011;6175;50.956;11.064;2023-04-01T04:02:09;1.70;;;1.00;;
12224;SDS011;6175;50.956;11.064;2023-04-01T04:04:37;0.77;;;0.73;;
12224;SDS011;6175;50.956;11.064;2023-04-01T04:07:04;3.33;;;0.95;;
12224;SDS011;6175;50.956;11.064;2023-04-01T04:09:31;1.15;;;1.00;;
12224;SDS011;6175;50.956;11.064;2023-04-01T04:12:00;2.30;;;1.30;;
12224;SDS011;6175;50.956;11.064;2023-04-01T04:14:27;1.42;;;0.80;;
12224;SDS011;6175;50.956;11.064;2023-04-01T04:16:54;1.85;;;1.05;;
12224;SDS011;6175;50.956;11.064;2023-04-01T04:19:21;0.95;;;0.95;;
12224;SDS011;6175;50.956;11.064;2023-04-01T04:21:48;1.33;;;0.90;;
12224;SDS011;6175;50.956;11.064;2023-04-01T04:24:15;1.75;;;1.17;;
12224;SDS011;6175;50.956;11.064;2023-04-01T04:26:42;1.55;;;1.02;;
12224;SDS011;6175;50.956;11.064;2023-04-01T04:29:11;1.63;;;1.42;;
12224;SDS011;6175;50.956;11.064;2023-04-01T04:31:38;3.92;;;1.30;;
12224;SDS011;6175;50.956;11.064;2023-04-01T04:34:05;1.75;;;1.02;;
12224;SDS011;6175;50.956;11.064;2023-04-01T04:36:32;1.55;;;0.80;;
12224;SDS011;6175;50.956;11.064;2023-04-01T04:38:59;1.80;;;1.08;;
12224;SDS011;6175;50.956;11.064;2023-04-01T04:41:28;1.48;;;0.80;;
12224;SDS011;6175;50.956;11.064;2023-04-01T04:43:55;4.05;;;1.13;;
12224;SDS011;6175;50.956;11.064;2023-04-01T04:46:24;1.17;;;1.08;;
12224;SDS011;6175;50.956;11.064;2023-04-01T04:48:52;1.05;;;0.82;;
12224;SDS011;6175;50.956;11.064;2023-04-01T04:51:19;1.50;;;1.00;;
12224;SDS011;6175;50.956;11.064;2023-04-01T04:53:46;1.90;;;0.90;;
12224;SDS011;6175;50.956;11.064;2023-04-01T04:56:17;1.13;;;0.80;;
12224;SDS011;6175;50.956;11.064;2023-04-01T04:58:45;2.58;;;1.08;;
12224;SDS011;6175;50.956;11.064;2023-04-01T05:01:13;2.65;;;0.90;;
12224;SDS011;6175;50.956;11.064;2023-04-01T05:03:42;1.80;;;1.10;;
12224;SDS011;6175;50.956;11.064;2023-04-01T05:06:10;1.00;;;0.93;;
12224;SDS011;6175;50.956;11.064;2023-04-01T05:08:38;1.02;;;0.80;;
12224;SDS011;6175;50.956;11.064;2023-04-01T05:11:06;2.45;;;0.85;;
12224;SDS011;6175;50.956;11.064;2023-04-01T05:13:35;1.10;;;0.90;;
12224;SDS011;6175;50.956;11.064;2023-04-01T05:16:02;0.73;;;0.70;;
12224;SDS011;6175;50.956;11.064;2023-04-01T05:18:29;2.60;;;0.93;;
12224;SDS011;6175;50.956;11.064;2023-04-01T05:20:57;1.25;;;0.90;;
12224;SDS011;6175;50.956;11.064;2023-04-01T05:23:25;0.80;;;0.80;;
12224;SDS011;6175;50.956;11.064;2023-04-01T05:25:52;2.42;;;0.77;;
12224;SDS011;6175;50.956;11.064;2023-04-01T05:28:19;1.38;;;0.80;;
12224;SDS011;6175;50.956;11.064;2023-04-01T05:30:46;0.65;;;0.65;;
12224;SDS011;6175;50.956;11.064;2023-04-01T05:33:13;1.17;;;1.00;;
12224;SDS011;6175;50.956;11.064;2023-04-01T05:35:40;1.45;;;0.88;;
12224;SDS011;6175;50.956;11.064;2023-04-01T05:38:09;2.15;;;1.00;;
12224;SDS011;6175;50.956;11.064;2023-04-01T05:40:36;0.75;;;0.63;;
12224;SDS011;6175;50.956;11.064;2023-04-01T05:43:03;0.98;;;0.70;;
12224;SDS011;6175;50.956;11.064;2023-04-01T05:45:31;1.50;;;1.40;;
12224;SDS011;6175;50.956;11.064;2023-04-01T05:47:58;2.50;;;1.02;;
12224;SDS011;6175;50.956;11.064;2023-04-01T05:50:26;1.45;;;0.73;;
12224;SDS011;6175;50.956;11.064;2023-04-01T05:52:53;0.98;;;0.80;;
12224;SDS011;6175;50.956;11.064;2023-04-01T05:55:21;0.70;;;0.68;;
12224;SDS011;6175;50.956;11.064;2023-04-01T05:57:49;0.90;;;0.73;;
12224;SDS011;6175;50.956;11.064;2023-04-01T06:00:16;0.95;;;0.80;;
12224;SDS011;6175;50.956;11.064;2023-04-01T06:02:44;0.55;;;0.55;;
12224;SDS011;6175;50.956;11.064;2023-04-01T06:05:13;0.68;;;0.68;;
12224;SDS011;6175;50.956;11.064;2023-04-01T06:07:41;0.98;;;0.75;;
12224;SDS011;6175;50.956;11.064;2023-04-01T06:10:13;1.88;;;0.93;;
12224;SDS011;6175;50.956;11.064;2023-04-01T06:12:59;2.47;;;1.20;;
12224;SDS011;6175;50.956;11.064;2023-04-01T06:15:33;1.00;;;0.90;;
12224;SDS011;6175;50.956;11.064;2023-04-01T06:18:07;2.40;;;1.00;;
12224;SDS011;6175;50.956;11.064;2023-04-01T06:20:39;1.10;;;0.73;;
12224;SDS011;6175;50.956;11.064;2023-04-01T06:23:24;2.55;;;0.80;;
12224;SDS011;6175;50.956;11.064;2023-04-01T06:25:58;1.25;;;0.73;;
12224;SDS011;6175;50.956;11.064;2023-04-01T06:28:48;0.88;;;0.70;;
12224;SDS011;6175;50.956;11.064;2023-04-01T06:31:23;0.80;;;0.80;;
12224;SDS011;6175;50.956;11.064;2023-04-01T06:34:08;2.17;;;1.05;;
12224;SDS011;6175;50.956;11.064;2023-04-01T06:36:44;1.88;;;0.98;;
12224;SDS011;6175;50.956;11.064;2023-04-01T06:39:25;3.17;;;1.10;;
12224;SDS011;6175;50.956;11.064;2023-04-01T06:42:16;1.65;;;1.02;;
12224;SDS011;6175;50.956;11.064;2023-04-01T06:44:57;1.48;;;0.82;;
12224;SDS011;6175;50.956;11.064;2023-04-01T06:47:29;0.80;;;0.70;;
12224;SDS011;6175;50.956;11.064;2023-04-01T06:50:07;1.00;;;1.00;;
12224;SDS011;6175;50.956;11.064;2023-04-01T06:52:44;1.88;;;1.08;;
12224;SDS011;6175;50.956;11.064;2023-04-01T06:55:18;2.03;;;0.90;;
12224;SDS011;6175;50.956;11.064;2023-04-01T06:57:52;1.20;;;0.70;;
12224;SDS011;6175;50.956;11.064;2023-04-01T07:00:25;0.90;;;0.85;;
12224;SDS011;6175;50.956;11.064;2023-04-01T07:02:59;1.75;;;0.75;;
12224;SDS011;6175;50.956;11.064;2023-04-01T07:05:32;2.25;;;0.70;;
12224;SDS011;6175;50.956;11.064;2023-04-01T07:08:01;1.55;;;1.08;;
12224;SDS011;6175;50.956;11.064;2023-04-01T07:10:33;1.25;;;0.70;;
12224;SDS011;6175;50.956;11.064;2023-04-01T07:13:02;0.88;;;0.80;;
12224;SDS011;6175;50.956;11.064;2023-04-01T07:15:36;0.88;;;0.60;;
12224;SDS011;6175;50.956;11.064;2023-04-01T07:18:07;1.05;;;0.70;;
12224;SDS011;6175;50.956;11.064;2023-04-01T07:20:38;1.20;;;0.70;;
12224;SDS011;6175;50.956;11.064;2023-04-01T07:23:06;0.95;;;0.60;;
12224;SDS011;6175;50.956;11.064;2023-04-01T07:25:36;0.75;;;0.60;;
12224;SDS011;6175;50.956;11.064;2023-04-01T07:28:05;0.60;;;0.60;;
12224;SDS011;6175;50.956;11.064;2023-04-01T07:30:33;2.60;;;0.95;;
12224;SDS011;6175;50.956;11.064;2023-04-01T07:33:11;1.35;;;0.60;;
12224;SDS011;6175;50.956;11.064;2023-04-01T07:35:46;0.70;;;0.70;;
12224;SDS011;6175;50.956;11.064;2023-04-01T07:38:19;1.92;;;1.00;;
12224;SDS011;6175;50.956;11.064;2023-04-01T07:40:49;0.88;;;0.88;;
12224;SDS011;6175;50.956;11.064;2023-04-01T07:46:11;1.55;;;0.80;;
12224;SDS011;6175;50.956;11.064;2023-04-01T07:48:43;3.15;;;0.80;;
12224;SDS011;6175;50.956;11.064;2023-04-01T07:51:17;0.75;;;0.75;;
12224;SDS011;6175;50.956;11.064;2023-04-01T07:53:49;1.52;;;0.88;;
12224;SDS011;6175;50.956;11.064;2023-04-01T07:56:25;1.20;;;0.70;;
12224;SDS011;6175;50.956;11.064;2023-04-01T07:58:57;1.75;;;1.00;;
12224;SDS011;6175;50.956;11.064;2023-04-01T08:01:30;1.30;;;0.80;;
12224;SDS011;6175;50.956;11.064;2023-04-01T08:04:13;2.13;;;0.90;;
12224;SDS011;6175;50.956;11.064;2023-04-01T08:06:50;0.70;;;0.70;;
12224;SDS011;6175;50.956;11.064;2023-04-01T08:09:25;1.48;;;0.60;;
12224;SDS011;6175;50.956;11.064;2023-04-01T08:11:59;1.45;;;0.90;;
12224;SDS011;6175;50.956;11.064;2023-04-01T08:14:36;1.13;;;0.80;;
12224;SDS011;6175;50.956;11.064;2023-04-01T08:17:15;1.20;;;0.80;;
12224;SDS011;6175;50.956;11.064;2023-04-01T08:19:55;1.88;;;1.77;;
12224;SDS011;6175;50.956;11.064;2023-04-01T08:22:23;1.38;;;0.90;;
12224;SDS011;6175;50.956;11.064;2023-04-01T08:24:55;1.58;;;0.90;;
12224;SDS011;6175;50.956;11.064;2023-04-01T08:27:26;0.98;;;0.88;;
12224;SDS011;6175;50.956;11.064;2023-04-01T08:29:56;0.68;;;0.68;;
12224;SDS011;6175;50.956;11.064;2023-04-01T08:32:27;0.90;;;0.88;;
12224;SDS011;6175;50.956;11.064;2023-04-01T08:34:59;1.52;;;0.90;;
12224;SDS011;6175;50.956;11.064;2023-04-01T08:37:28;1.13;;;1.00;;
12224;SDS011;6175;50.956;11.064;2023-04-01T08:39:58;0.63;;;0.63;;
12224;SDS011;6175;50.956;11.064;2023-04-01T08:42:31;0.70;;;0.70;;
12224;SDS011;6175;50.956;11.064;2023-04-01T08:45:24;1.02;;;0.70;;
12224;SDS011;6175;50.956;11.064;2023-04-01T08:48:10;1.88;;;0.90;;
12224;SDS011;6175;50.956;11.064;2023-04-01T08:53:56;3.05;;;0.75;;
12224;SDS011;6175;50.956;11.064;2023-04-01T08:56:36;1.98;;;0.85;;
12224;SDS011;6175;50.956;11.064;2023-04-01T08:59:13;0.65;;;0.52;;
12224;SDS011;6175;50.956;11.064;2023-04-01T09:02:04;0.50;;;0.50;;
12224;SDS011;6175;50.956;11.064;2023-04-01T09:05:17;1.08;;;0.60;;
12224;SDS011;6175;50.956;11.064;2023-04-01T09:07:58;2.25;;;1.00;;
12224;SDS011;6175;50.956;11.064;2023-04-01T09:13:29;0.80;;;0.70;;
12224;SDS011;6175;50.956;11.064;2023-04-01T09:19:15;0.68;;;0.60;;
12224;SDS011;6175;50.956;11.064;2023-04-01T09:25:15;0.63;;;0.60;;
12224;SDS011;6175;50.956;11.064;2023-04-01T09:27:48;1.08;;;0.98;;
12224;SDS011;6175;50.956;11.064;2023-04-01T09:30:32;0.75;;;0.75;;
12224;SDS011;6175;50.956;11.064;2023-04-01T09:35:48;0.88;;;0.57;;
12224;SDS011;6175;50.956;11.064;2023-04-01T09:38:27;1.15;;;0.75;;
12224;SDS011;6175;50.956;11.064;2023-04-01T09:40:56;0.50;;;0.50;;
12224;SDS011;6175;50.956;11.064;2023-04-01T09:43:28;0.65;;;0.65;;
12224;SDS011;6175;50.956;11.064;2023-04-01T09:46:20;2.88;;;1.70;;
12224;SDS011;6175;50.956;11.064;2023-04-01T09:49:06;2.30;;;1.65;;
12224;SDS011;6175;50.956;11.064;2023-04-01T09:51:55;0.80;;;0.70;;
12224;SDS011;6175;50.956;11.064;2023-04-01T09:54:30;2.67;;;2.47;;
12224;SDS011;6175;50.956;11.064;2023-04-01T09:57:11;0.85;;;0.85;;
12224;SDS011;6175;50.956;11.064;2023-04-01T10:00:10;0.50;;;0.50;;
12224;SDS011;6175;50.956;11.064;2023-04-01T10:03:03;0.52;;;0.45;;
12224;SDS011;6175;50.956;11.064;2023-04-01T10:12:35;0.60;;;0.50;;
12224;SDS011;6175;50.956;11.064;2023-04-01T10:15:26;0.40;;;0.40;;
12224;SDS011;6175;50.956;11.064;2023-04-01T10:18:14;0.40;;;0.40;;
12224;SDS011;6175;50.956;11.064;2023-04-01T10:21:09;0.77;;;0.60;;
12224;SDS011;6175;50.956;11.064;2023-04-01T10:23:54;1.30;;;0.60;;
12224;SDS011;6175;50.956;11.064;2023-04-01T10:27:00;0.57;;;0.40;;
12224;SDS011;6175;50.956;11.064;2023-04-01T10:29:41;1.25;;;0.50;;
12224;SDS011;6175;50.956;11.064;2023-04-01T10:32:43;0.22;;;0.22;;
12224;SDS011;6175;50.956;11.064;2023-04-01T10:35:46;0.63;;;0.50;;
12224;SDS011;6175;50.956;11.064;2023-04-01T10:38:43;0.75;;;0.60;;
12224;SDS011;6175;50.956;11.064;2023-04-01T10:41:29;0.65;;;0.40;;
12224;SDS011;6175;50.956;11.064;2023-04-01T10:47:48;0.50;;;0.50;;
12224;SDS011;6175;50.956;11.064;2023-04-01T10:53:38;0.73;;;0.55;;
12224;SDS011;6175;50.956;11.064;2023-04-01T11:02:35;0.30;;;0.30;;
12224;SDS011;6175;50.956;11.064;2023-04-01T11:05:35;0.60;;;0.60;;
12224;SDS011;6175;50.956;11.064;2023-04-01T11:14:35;0.82;;;0.57;;
12224;SDS011;6175;50.956;11.064;2023-04-01T11:20:54;0.52;;;0.40;;
12224;SDS011;6175;50.956;11.064;2023-04-01T11:23:50;0.43;;;0.43;;
12224;SDS011;6175;50.956;11.064;2023-04-01T11:26:21;0.55;;;0.55;;
12224;SDS011;6175;50.956;11.064;2023-04-01T11:29:03;0.70;;;0.57;;
12224;SDS011;6175;50.956;11.064;2023-04-01T11:31:50;0.70;;;0.70;;
12224;SDS011;6175;50.956;11.064;2023-04-01T11:37:42;0.80;;;0.80;;
12224;SDS011;6175;50.956;11.064;2023-04-01T11:40:20;0.50;;;0.50;;
12224;SDS011;6175;50.956;11.064;2023-04-01T11:42:54;0.60;;;0.60;;
12224;SDS011;6175;50.956;11.064;2023-04-01T11:45:31;0.55;;;0.55;;
12224;SDS011;6175;50.956;11.064;2023-04-01T11:51:06;0.73;;;0.65;;
12224;SDS011;6175;50.956;11.064;2023-04-01T11:53:52;1.58;;;0.50;;
12224;SDS011;6175;50.956;11.064;2023-04-01T11:56:29;1.15;;;0.50;;
12224;SDS011;6175;50.956;11.064;2023-04-01T11:59:31;0.47;;;0.47;;
12224;SDS011;6175;50.956;11.064;2023-04-01T12:02:20;0.50;;;0.50;;
12224;SDS011;6175;50.956;11.064;2023-04-01T12:04:57;0.50;;;0.50;;
12224;SDS011;6175;50.956;11.064;2023-04-01T12:10:36;0.40;;;0.40;;
12224;SDS011;6175;50.956;11.064;2023-04-01T12:13:09;0.52;;;0.52;;
12224;SDS011;6175;50.956;11.064;2023-04-01T12:15:54;0.50;;;0.50;;
12224;SDS011;6175;50.956;11.064;2023-04-01T12:18:36;1.02;;;0.30;;
12224;SDS011;6175;50.956;11.064;2023-04-01T12:21:13;0.50;;;0.50;;
12224;SDS011;6175;50.956;11.064;2023-04-01T12:24:02;1.33;;;0.65;;
12224;SDS011;6175;50.956;11.064;2023-04-01T12:26:54;0.90;;;0.52;;
12224;SDS011;6175;50.956;11.064;2023-04-01T12:29:37;0.40;;;0.40;;
12224;SDS011;6175;50.956;11.064;2023-04-01T12:32:14;0.40;;;0.40;;
12224;SDS011;6175;50.956;11.064;2023-04-01T12:34:51;0.75;;;0.68;;
12224;SDS011;6175;50.956;11.064;2023-04-01T12:37:26;0.75;;;0.35;;
12224;SDS011;6175;50.956;11.064;2023-04-01T12:39:58;1.27;;;0.63;;
12224;SDS011;6175;50.956;11.064;2023-04-01T12:42:50;0.50;;;0.40;;
12224;SDS011;6175;50.956;11.064;2023-04-01T12:45:32;0.60;;;0.60;;
12224;SDS011;6175;50.956;11.064;2023-04-01T12:51:05;0.93;;;0.70;;
12224;SDS011;6175;50.956;11.064;2023-04-01T12:53:56;1.73;;;0.40;;
12224;SDS011;6175;50.956;11.064;2023-04-01T12:56:28;0.45;;;0.45;;
12224;SDS011;6175;50.956;11.064;2023-04-01T12:59:18;0.40;;;0.40;;
12224;SDS011;6175;50.956;11.064;2023-04-01T13:02:04;0.45;;;0.45;;
12224;SDS011;6175;50.956;11.064;2023-04-01T13:04:48;0.38;;;0.38;;
12224;SDS011;6175;50.956;11.064;2023-04-01T13:10:13;0.90;;;0.55;;
12224;SDS011;6175;50.956;11.064;2023-04-01T13:15:36;0.50;;;0.50;;
12224;SDS011;6175;50.956;11.064;2023-04-01T13:18:07;0.85;;;0.70;;
12224;SDS011;6175;50.956;11.064;2023-04-01T13:20:48;0.43;;;0.40;;
12224;SDS011;6175;50.956;11.064;2023-04-01T13:23:24;0.38;;;0.38;;
12224;SDS011;6175;50.956;11.064;2023-04-01T13:25:59;0.20;;;0.20;;
12224;SDS011;6175;50.956;11.064;2023-04-01T13:28:34;0.40;;;0.40;;
12224;SDS011;6175;50.956;11.064;2023-04-01T13:31:07;0.80;;;0.80;;
12224;SDS011;6175;50.956;11.064;2023-04-01T13:33:38;0.55;;;0.38;;
12224;SDS011;6175;50.956;11.064;2023-04-01T13:36:16;0.50;;;0.40;;
12224;SDS011;6175;50.956;11.064;2023-04-01T13:38:59;0.75;;;0.50;;
12224;SDS011;6175;50.956;11.064;2023-04-01T13:41:38;0.30;;;0.30;;
12224;SDS011;6175;50.956;11.064;2023-04-01T13:44:20;0.88;;;0.30;;
12224;SDS011;6175;50.956;11.064;2023-04-01T13:50:18;0.40;;;0.40;;
12224;SDS011;6175;50.956;11.064;2023-04-01T13:53:10;0.52;;;0.52;;
12224;SDS011;6175;50.956;11.064;2023-04-01T13:55:45;1.27;;;0.60;;
12224;SDS011;6175;50.956;11.064;2023-04-01T13:58:34;0.80;;;0.80;;
12224;SDS011;6175;50.956;11.064;2023-04-01T14:01:10;0.52;;;0.52;;
12224;SDS011;6175;50.956;11.064;2023-04-01T14:06:46;0.38;;;0.38;;
12224;SDS011;6175;50.956;11.064;2023-04-01T14:12:26;1.58;;;0.60;;
12224;SDS011;6175;50.956;11.064;2023-04-01T14:15:01;1.20;;;0.77;;
12224;SDS011;6175;50.956;11.064;2023-04-01T14:17:58;0.60;;;0.60;;
12224;SDS011;6175;50.956;11.064;2023-04-01T14:20:36;0.60;;;0.57;;
12224;SDS011;6175;50.956;11.064;2023-04-01T14:23:17;1.80;;;1.05;;
12224;SDS011;6175;50.956;11.064;2023-04-01T14:26:02;0.75;;;0.73;;
12224;SDS011;6175;50.956;11.064;2023-04-01T14:28:31;1.92;;;0.80;;
12224;SDS011;6175;50.956;11.064;2023-04-01T14:31:14;0.50;;;0.50;;
12224;SDS011;6175;50.956;11.064;2023-04-01T14:33:56;0.50;;;0.50;;
12224;SDS011;6175;50.956;11.064;2023-04-01T14:39:17;0.30;;;0.30;;
12224;SDS011;6175;50.956;11.064;2023-04-01T14:41:58;1.05;;;0.60;;
12224;SDS011;6175;50.956;11.064;2023-04-01T14:44:50;0.60;;;0.60;;
12224;SDS011;6175;50.956;11.064;2023-04-01T14:47:25;0.73;;;0.73;;
12224;SDS011;6175;50.956;11.064;2023-04-01T14:50:06;0.70;;;0.70;;
12224;SDS011;6175;50.956;11.064;2023-04-01T14:52:39;0.70;;;0.70;;
12224;SDS011;6175;50.956;11.064;2023-04-01T14:55:18;1.05;;;0.55;;
12224;SDS011;6175;50.956;11.064;2023-04-01T14:57:57;1.30;;;1.20;;
12224;SDS011;6175;50.956;11.064;2023-04-01T15:00:25;0.80;;;0.80;;
12224;SDS011;6175;50.956;11.064;2023-04-01T15:02:54;1.10;;;1.10;;
12224;SDS011;6175;50.956;11.064;2023-04-01T15:05:32;0.77;;;0.77;;
12224;SDS011;6175;50.956;11.064;2023-04-01T15:08:09;1.02;;;0.93;;
12224;SDS011;6175;50.956;11.064;2023-04-01T15:10:56;0.60;;;0.60;;
12224;SDS011;6175;50.956;11.064;2023-04-01T15:16:49;0.52;;;0.52;;
12224;SDS011;6175;50.956;11.064;2023-04-01T15:19:24;1.10;;;0.98;;
12224;SDS011;6175;50.956;11.064;2023-04-01T15:22:13;0.50;;;0.50;;
12224;SDS011;6175;50.956;11.064;2023-04-01T15:25:00;1.30;;;1.10;;
12224;SDS011;6175;50.956;11.064;2023-04-01T15:27:33;1.20;;;1.10;;
12224;SDS011;6175;50.956;11.064;2023-04-01T15:30:18;0.70;;;0.70;;
12224;SDS011;6175;50.956;11.064;2023-04-01T15:33:15;1.00;;;0.98;;
12224;SDS011;6175;50.956;11.064;2023-04-01T15:35:57;0.57;;;0.57;;
12224;SDS011;6175;50.956;11.064;2023-04-01T15:38:31;1.50;;;1.40;;
12224;SDS011;6175;50.956;11.064;2023-04-01T15:41:03;1.30;;;1.20;;
12224;SDS011;6175;50.956;11.064;2023-04-01T15:43:42;1.30;;;1.20;;
12224;SDS011;6175;50.956;11.064;2023-04-01T15:49:25;0.60;;;0.60;;
12224;SDS011;6175;50.956;11.064;2023-04-01T15:52:03;0.70;;;0.70;;
12224;SDS011;6175;50.956;11.064;2023-04-01T15:54:47;0.80;;;0.65;;
12224;SDS011;6175;50.956;11.064;2023-04-01T15:57:25;0.90;;;0.90;;
12224;SDS011;6175;50.956;11.064;2023-04-01T16:05:52;1.20;;;1.10;;
12224;SDS011;6175;50.956;11.064;2023-04-01T16:08:33;0.70;;;0.70;;
12224;SDS011;6175;50.956;11.064;2023-04-01T16:11:18;1.27;;;1.10;;
12224;SDS011;6175;50.956;11.064;2023-04-01T16:13:48;0.90;;;0.90;;
12224;SDS011;6175;50.956;11.064;2023-04-01T16:16:34;1.48;;;0.90;;
12224;SDS011;6175;50.956;11.064;2023-04-01T16:19:20;1.52;;;1.10;;
12224;SDS011;6175;50.956;11.064;2023-04-01T16:21:59;1.02;;;0.95;;
12224;SDS011;6175;50.956;11.064;2023-04-01T16:24:33;1.00;;;0.90;;
12224;SDS011;6175;50.956;11.064;2023-04-01T16:27:02;0.77;;;0.77;;
12224;SDS011;6175;50.956;11.064;2023-04-01T16:29:37;1.60;;;1.00;;
12224;SDS011;6175;50.956;11.064;2023-04-01T16:32:17;1.48;;;0.80;;
12224;SDS011;6175;50.956;11.064;2023-04-01T16:34:56;0.90;;;0.73;;
12224;SDS011;6175;50.956;11.064;2023-04-01T16:37:38;0.80;;;0.80;;
12224;SDS011;6175;50.956;11.064;2023-04-01T16:40:12;1.52;;;0.70;;
12224;SDS011;6175;50.956;11.064;2023-04-01T16:42:47;0.75;;;0.75;;
12224;SDS011;6175;50.956;11.064;2023-04-01T16:45:21;0.85;;;0.85;;
12224;SDS011;6175;50.956;11.064;2023-04-01T16:47:59;0.70;;;0.70;;
12224;SDS011;6175;50.956;11.064;2023-04-01T16:50:39;3.58;;;3.28;;
12224;SDS011;6175;50.956;11.064;2023-04-01T16:53:14;2.45;;;2.25;;
12224;SDS011;6175;50.956;11.064;2023-04-01T16:55:46;1.80;;;1.70;;
12224;SDS011;6175;50.956;11.064;2023-04-01T16:58:18;2.25;;;1.67;;
12224;SDS011;6175;50.956;11.064;2023-04-01T17:00:49;1.50;;;1.40;;
12224;SDS011;6175;50.956;11.064;2023-04-01T17:03:25;1.58;;;1.48;;